Time;durP1;ratioP1;P1;durP2;ratioP2;P2;SDS_P1;SDS_P2;PMS_P1;PMS_P2;Temp;Humidity;BMP_temperature;BMP_pressure;BME280_temperature;BME280_humidity;BME280_pressure;Samples;Min_cycle;Max_cycle;Signal;HPM_P1;HPM_P2
2021/06/21 00:04:08;;;;;;;15.00;9.73;;;;;;;17.59;82.36;100625.41;10588273;28;20054;-59
2021/06/21 00:09:11;;;;;;;9.55;8.52;;;;;;;17.45;80.91;100619.53;10588827;28;20048;-59
2021/06/21 00:14:13;;;;;;;12.05;7.93;;;;;;;17.83;78.34;100627.63;10587669;28;20396;-60
2021/06/21 00:19:15;;;;;;;11.82;7.75;;;;;;;17.81;80.91;100629.59;10587965;28;20046;-59
2021/06/21 00:24:20;;;;;;;15.30;10.23;;;;;;;18.03;79.36;100623.19;10587604;28;20044;-59
2021/06/21 00:29:22;;;;;;;13.52;10.60;;;;;;;17.41;80.88;100619.94;10588061;28;20058;-59
2021/06/21 00:34:25;;;;;;;19.65;11.18;;;;;;;16.99;82.33;100602.44;10587164;28;20044;-59
2021/06/21 00:39:27;;;;;;;15.85;11.52;;;;;;;16.91;82.90;100589.03;10587015;28;20040;-60
2021/06/21 00:44:29;;;;;;;18.83;14.00;;;;;;;16.55;85.85;100579.84;10586826;28;20410;-59
2021/06/21 00:49:32;;;;;;;21.52;15.70;;;;;;;16.61;83.65;100574.88;10587325;28;20078;-60
2021/06/21 00:54:35;;;;;;;15.82;14.10;;;;;;;16.52;84.80;100573.84;10586080;28;20151;-60
2021/06/21 00:59:37;;;;;;;21.65;17.40;;;;;;;16.02;85.68;100565.78;10585114;28;20066;-59
2021/06/21 01:04:39;;;;;;;19.30;13.68;;;;;;;15.94;85.51;100570.88;10585732;28;20494;-60
2021/06/21 01:09:42;;;;;;;18.48;15.55;;;;;;;16.13;85.94;100573.63;10585587;28;20487;-60
2021/06/21 01:14:50;;;;;;;18.88;16.17;;;;;;;16.06;86.54;100587.50;10583967;28;20051;-59
2021/06/21 01:20:14;;;;;;;19.15;15.27;;;;;;;16.23;84.53;100596.63;10585387;28;20048;-59
2021/06/21 01:25:29;;;;;;;20.58;17.52;;;;;;;15.71;87.06;100599.13;10585122;28;20055;-59
2021/06/21 01:31:02;;;;;;;21.90;15.75;;;;;;;16.02;85.80;100593.97;10584780;28;20406;-59
2021/06/21 01:36:07;;;;;;;20.83;15.55;;;;;;;15.81;86.76;100581.59;10584316;28;20047;-60
2021/06/21 01:41:16;;;;;;;18.13;16.15;;;;;;;16.12;86.48;100587.81;10583836;28;20049;-59
2021/06/21 01:46:19;;;;;;;15.85;14.35;;;;;;;16.19;85.00;100589.91;10583553;28;20062;-60
2021/06/21 01:51:23;;;;;;;12.57;11.18;;;;;;;15.87;85.51;100599.59;10583477;28;20093;-59
2021/06/21 01:56:31;;;;;;;16.08;13.27;;;;;;;15.83;86.96;100594.69;10582406;28;20545;-59
2021/06/21 02:01:34;;;;;;;21.33;15.68;;;;;;;15.75;86.37;100574.16;10582997;28;20089;-59
2021/06/21 02:06:37;;;;;;;17.45;13.63;;;;;;;15.22;87.82;100557.31;10582863;28;20056;-60
2021/06/21 02:11:39;;;;;;;18.90;14.75;;;;;;;15.38;88.06;100556.06;10582628;28;20047;-60
2021/06/21 02:16:42;;;;;;;17.10;13.25;;;;;;;15.52;86.89;100550.50;10583007;28;20048;-60
2021/06/21 02:21:45;;;;;;;15.48;12.63;;;;;;;15.50;87.09;100554.22;10581854;28;20126;-60
2021/06/21 02:26:48;;;;;;;15.48;12.23;;;;;;;15.03;86.63;100563.25;10582864;28;20048;-62
2021/06/21 02:31:51;;;;;;;13.52;10.20;;;;;;;15.32;88.29;100564.50;10582482;28;20039;-60
2021/06/21 02:36:54;;;;;;;18.05;12.18;;;;;;;15.20;88.45;100569.78;10580764;28;20040;-59
2021/06/21 02:41:56;;;;;;;12.77;9.90;;;;;;;15.26;87.82;100570.25;10580840;28;20048;-60
2021/06/21 02:46:59;;;;;;;22.27;14.32;;;;;;;15.13;87.76;100565.97;10582140;28;20062;-59
2021/06/21 02:52:07;;;;;;;20.20;13.05;;;;;;;14.98;87.79;100556.66;10582524;28;20058;-60
2021/06/21 02:57:24;;;;;;;14.68;9.90;;;;;;;14.95;88.67;100555.09;10581657;28;20047;-60
2021/06/21 03:02:28;;;;;;;12.95;10.00;;;;;;;15.29;87.92;100555.03;10581801;28;20048;-59
2021/06/21 03:07:32;;;;;;;13.48;8.65;;;;;;;14.64;87.79;100561.94;10580127;28;20130;-60
2021/06/21 03:12:34;;;;;;;8.73;7.40;;;;;;;14.63;89.08;100576.09;10581635;28;20041;-60
2021/06/21 03:17:38;;;;;;;8.07;6.72;;;;;;;14.49;88.61;100566.56;10581194;28;20055;-59
2021/06/21 03:22:44;;;;;;;10.20;6.15;;;;;;;14.43;89.58;100553.91;10589427;28;20054;-60
2021/06/21 03:27:46;;;;;;;9.00;4.47;;;;;;;14.20;89.14;100547.75;10589905;28;20055;-59
2021/06/21 03:32:51;;;;;;;11.20;6.90;;;;;;;14.57;89.63;100543.09;10589720;28;20043;-59
2021/06/21 03:37:54;;;;;;;7.65;4.80;;;;;;;13.96;88.55;100532.06;10589905;28;20039;-59
2021/06/21 03:42:56;;;;;;;8.35;5.10;;;;;;;14.31;88.89;100537.25;10589143;28;20052;-60
2021/06/21 03:47:58;;;;;;;6.18;4.65;;;;;;;14.36;87.97;100532.47;10589054;28;20051;-59
2021/06/21 03:53:01;;;;;;;8.65;5.32;;;;;;;14.47;87.85;100532.47;10588808;28;20047;-59
2021/06/21 03:58:05;;;;;;;9.57;5.28;;;;;;;14.27;88.49;100535.78;10587732;28;20047;-59
2021/06/21 04:03:07;;;;;;;12.20;5.40;;;;;;;14.06;88.18;100541.75;10588718;28;20051;-59
2021/06/21 04:08:11;;;;;;;4.97;4.28;;;;;;;14.17;87.65;100533.06;10586976;28;20047;-59
2021/06/21 04:13:16;;;;;;;6.20;4.10;;;;;;;14.03;88.26;100517.47;10588552;28;20043;-59
2021/06/21 04:18:18;;;;;;;11.07;5.57;;;;;;;13.83;89.13;100517.19;10587668;28;20054;-58
2021/06/21 04:23:21;;;;;;;9.27;4.28;;;;;;;13.88;89.02;100527.38;10588150;28;20050;-59
2021/06/21 04:28:23;;;;;;;3.88;3.53;;;;;;;13.98;88.57;100522.25;10586791;28;20051;-58
2021/06/21 04:33:26;;;;;;;4.25;3.47;;;;;;;13.72;88.10;100523.25;10586595;28;20062;-59
2021/06/21 04:38:28;;;;;;;4.07;3.53;;;;;;;13.77;88.28;100528.19;10587208;28;20043;-59
2021/06/21 04:43:30;;;;;;;4.78;3.95;;;;;;;14.11;87.72;100520.34;10586621;28;20114;-59
2021/06/21 04:48:33;;;;;;;3.00;2.75;;;;;;;13.97;87.49;100524.03;10586907;28;20059;-58
2021/06/21 04:53:35;;;;;;;2.92;2.70;;;;;;;13.87;88.31;100516.00;10585403;28;20414;-59
2021/06/21 04:58:37;;;;;;;2.60;2.40;;;;;;;13.94;88.17;100508.47;10584629;28;20060;-58
2021/06/21 05:03:39;;;;;;;4.68;2.83;;;;;;;13.88;87.46;100517.66;10585946;28;20054;-59
2021/06/21 05:08:42;;;;;;;3.15;2.95;;;;;;;13.79;88.85;100518.38;10585746;28;20487;-59
2021/06/21 05:13:44;;;;;;;6.53;4.10;;;;;;;13.82;89.52;100527.81;10585754;28;20051;-59
2021/06/21 05:18:47;;;;;;;3.10;2.65;;;;;;;13.82;88.88;100528.69;10585192;28;20051;-59
2021/06/21 05:23:49;;;;;;;5.80;3.22;;;;;;;13.64;90.64;100525.63;10585202;28;20048;-59
2021/06/21 05:28:52;;;;;;;3.50;2.60;;;;;;;13.80;89.21;100535.00;10584591;28;20048;-59
2021/06/21 05:33:54;;;;;;;3.40;2.63;;;;;;;13.87;88.99;100521.28;10585020;28;20052;-59
2021/06/21 05:38:57;;;;;;;2.88;2.15;;;;;;;13.72;88.88;100522.44;10584419;28;20051;-58
2021/06/21 05:43:59;;;;;;;1.90;1.80;;;;;;;14.19;87.66;100525.88;10583585;28;20051;-58
2021/06/21 05:49:01;;;;;;;3.40;2.30;;;;;;;13.89;87.36;100529.06;10584201;28;20052;-57
2021/06/21 05:54:04;;;;;;;4.10;1.88;;;;;;;13.94;87.90;100522.47;10583900;28;20055;-57
2021/06/21 05:59:06;;;;;;;3.53;2.50;;;;;;;13.97;89.33;100531.09;10583677;28;20051;-58
2021/06/21 06:04:09;;;;;;;3.88;2.75;;;;;;;13.92;88.10;100529.66;10583313;28;20051;-57
2021/06/21 06:09:11;;;;;;;3.08;2.25;;;;;;;14.29;87.19;100537.38;10583165;28;20048;-57
2021/06/21 06:14:13;;;;;;;4.93;2.78;;;;;;;14.07;86.51;100539.94;10583074;28;20053;-58
2021/06/21 06:19:16;;;;;;;3.67;2.42;;;;;;;13.93;88.42;100546.28;10582592;28;20047;-57
2021/06/21 06:24:18;;;;;;;4.13;2.50;;;;;;;13.91;90.12;100546.38;10582793;28;20058;-58
2021/06/21 06:29:21;;;;;;;2.78;2.35;;;;;;;14.13;87.72;100550.84;10581256;28;20047;-57
2021/06/21 06:34:24;;;;;;;2.83;2.20;;;;;;;13.92;88.99;100545.44;10582137;28;20399;-58
2021/06/21 06:39:26;;;;;;;2.97;2.60;;;;;;;14.06;87.53;100541.75;10582281;28;20039;-58
2021/06/21 06:44:29;;;;;;;4.60;2.67;;;;;;;14.03;87.96;100547.25;10581853;28;20063;-57
2021/06/21 06:49:31;;;;;;;5.53;2.33;;;;;;;13.99;88.76;100560.78;10582183;28;20055;-57
2021/06/21 06:59:48;;;;;;;5.85;1.92;;;;;;;14.29;88.44;100574.25;10581594;28;20048;-57
2021/06/21 07:04:50;;;;;;;1.98;1.80;;;;;;;14.03;87.71;100570.94;10581703;28;20048;-57
2021/06/21 07:09:53;;;;;;;2.85;2.10;;;;;;;13.95;87.99;100581.19;10582104;28;20047;-57
2021/06/21 07:14:55;;;;;;;2.45;1.58;;;;;;;14.17;88.69;100584.84;10581296;28;20050;-59
2021/06/21 07:19:57;;;;;;;2.75;1.58;;;;;;;14.06;87.42;100577.78;10581336;28;20048;-58
2021/06/21 07:25:00;;;;;;;6.00;2.13;;;;;;;14.12;87.96;100578.16;10581138;28;20047;-59
2021/06/21 07:30:04;;;;;;;4.55;2.03;;;;;;;14.15;89.51;100574.44;10581225;28;20048;-59
2021/06/21 07:35:07;;;;;;;1.52;1.23;;;;;;;14.17;88.24;100582.22;10581214;28;20048;-58
2021/06/21 07:40:10;;;;;;;1.40;1.30;;;;;;;14.09;87.88;100590.72;10580446;28;20475;-58
2021/06/21 07:45:13;;;;;;;1.50;1.38;;;;;;;14.14;88.23;100596.47;10580603;28;20093;-58
2021/06/21 07:50:16;;;;;;;1.50;1.40;;;;;;;14.19;89.54;100604.00;10581234;28;20048;-57
2021/06/21 07:55:19;;;;;;;4.22;1.20;;;;;;;14.28;87.34;100611.22;10580408;28;20050;-58
2021/06/21 08:00:24;;;;;;;5.60;1.17;;;;;;;14.11;89.50;100607.22;10580323;28;20486;-58
2021/06/21 08:05:26;;;;;;;1.45;0.93;;;;;;;14.04;88.56;100596.31;10583212;28;20040;-59
2021/06/21 08:10:29;;;;;;;1.60;1.50;;;;;;;14.44;86.92;100597.69;10587862;28;20403;-58
2021/06/21 08:15:31;;;;;;;2.97;1.23;;;;;;;14.43;86.94;100617.94;10587532;28;20434;-57
2021/06/21 08:20:34;;;;;;;2.60;1.50;;;;;;;14.52;87.04;100613.75;10587973;28;20043;-60
2021/06/21 08:25:36;;;;;;;1.67;1.50;;;;;;;14.44;88.19;100631.94;10587803;28;20044;-59
2021/06/21 08:30:39;;;;;;;1.80;1.63;;;;;;;14.48;87.28;100636.03;10587464;28;20048;-58
2021/06/21 08:35:42;;;;;;;3.30;1.90;;;;;;;14.42;88.55;100641.75;10586856;28;20048;-58
2021/06/21 08:40:44;;;;;;;2.22;2.05;;;;;;;14.36;88.11;100653.63;10585739;28;20055;-58
2021/06/21 08:45:48;;;;;;;6.55;1.75;;;;;;;14.31;88.24;100672.38;10586517;28;20052;-56
2021/06/21 08:50:50;;;;;;;1.88;1.50;;;;;;;14.56;87.67;100677.59;10586543;28;20059;-59
2021/06/21 08:55:53;;;;;;;3.25;1.75;;;;;;;14.38;88.33;100683.31;10585882;28;20050;-58
2021/06/21 09:00:55;;;;;;;3.05;1.80;;;;;;;14.63;87.16;100677.03;10586305;28;20050;-59
2021/06/21 09:05:57;;;;;;;3.28;1.35;;;;;;;14.73;85.42;100671.09;10585921;28;20040;-59
2021/06/21 09:10:59;;;;;;;1.52;1.42;;;;;;;14.65;85.39;100677.75;10585607;28;20426;-58
2021/06/21 09:16:02;;;;;;;2.10;1.98;;;;;;;14.65;88.06;100674.28;10585140;28;20050;-58
2021/06/21 09:21:24;;;;;;;2.03;1.90;;;;;;;14.55;87.39;100674.13;10585753;28;20047;-59
2021/06/21 09:26:44;;;;;;;2.53;2.33;;;;;;;14.64;88.45;100683.16;10583868;28;20047;-59
2021/06/21 09:31:53;;;;;;;2.53;1.88;;;;;;;14.40;87.75;100701.63;10584780;28;20491;-59
2021/06/21 09:37:13;;;;;;;2.92;2.50;;;;;;;14.86;85.35;100706.06;10584481;28;20044;-59
2021/06/21 09:42:23;;;;;;;5.15;2.97;;;;;;;14.71;87.40;100721.28;10584127;27;20399;-59
2021/06/21 09:47:28;;;;;;;5.40;3.03;;;;;;;14.50;87.49;100737.69;10584206;28;20063;-59
2021/06/21 09:52:37;;;;;;;1.80;1.55;;;;;;;14.57;86.88;100747.78;10584288;28;20049;-58
2021/06/21 09:57:40;;;;;;;2.45;2.25;;;;;;;14.82;87.07;100770.50;10565524;28;20055;-58
2021/06/21 10:02:42;;;;;;;1.73;1.63;;;;;;;14.51;87.44;100785.97;10584122;28;20040;-58
2021/06/21 10:07:45;;;;;;;2.90;2.22;;;;;;;14.66;88.24;100795.38;10583163;28;20054;-59
2021/06/21 10:12:48;;;;;;;2.13;2.03;;;;;;;14.73;86.91;100806.31;10583702;28;20043;-59
2021/06/21 10:17:50;;;;;;;2.08;1.98;;;;;;;14.93;86.20;100803.97;10583138;28;20048;-58
2021/06/21 10:22:54;;;;;;;2.33;2.13;;;;;;;14.58;86.22;100815.34;10582172;28;20043;-59
2021/06/21 10:28:00;;;;;;;2.10;1.92;;;;;;;14.63;87.20;100810.59;10580756;28;20044;-58
2021/06/21 10:33:03;;;;;;;2.15;2.05;;;;;;;14.97;86.85;100771.97;10582510;28;20073;-59
2021/06/21 10:38:06;;;;;;;2.25;1.80;;;;;;;14.97;85.21;100724.53;10582194;28;20043;-59
2021/06/21 10:43:09;;;;;;;3.58;2.97;;;;;;;15.73;84.08;100706.25;10582535;28;20127;-59
2021/06/21 10:48:15;;;;;;;2.03;1.92;;;;;;;14.88;88.81;100711.22;10581769;28;20055;-58
2021/06/21 10:53:18;;;;;;;3.30;2.42;;;;;;;15.76;86.17;100721.03;10582106;28;20051;-59
2021/06/21 10:58:23;;;;;;;3.85;2.58;;;;;;;15.81;87.63;100752.34;10580291;28;20152;-59
2021/06/21 11:03:29;;;;;;;3.00;2.80;;;;;;;15.75;84.89;100799.41;10581344;28;20062;-59
2021/06/21 11:08:50;;;;;;;3.08;2.83;;;;;;;15.67;87.02;100822.03;10581320;28;20048;-59
2021/06/21 11:14:11;;;;;;;2.15;1.98;;;;;;;16.13;84.32;100839.53;10581258;28;20399;-58
2021/06/21 11:19:22;;;;;;;2.87;1.47;;;;;;;15.94;83.76;100853.38;10581318;28;20051;-59
2021/06/21 11:24:38;;;;;;;1.27;1.27;;;;;;;15.46;83.22;100872.88;10581128;28;20054;-60
2021/06/21 11:29:46;;;;;;;1.50;1.40;;;;;;;15.81;84.51;100879.06;10580977;28;20162;-59
2021/06/21 11:34:48;;;;;;;4.03;1.80;;;;;;;15.78;84.57;100883.63;10581556;28;20119;-60
2021/06/21 11:40:11;;;;;;;1.33;1.23;;;;;;;15.54;85.13;100896.88;10582468;28;20047;-59
2021/06/21 11:45:13;;;;;;;1.10;1.02;;;;;;;15.43;84.16;100912.69;10589483;28;20054;-59
2021/06/21 11:50:16;;;;;;;2.47;1.15;;;;;;;15.42;83.52;100908.38;10587559;28;20048;-60
2021/06/21 11:55:19;;;;;;;1.65;1.55;;;;;;;15.34;85.06;100926.59;10587413;28;20044;-60
2021/06/21 12:00:34;;;;;;;2.20;1.27;;;;;;;15.59;85.42;100928.19;10588686;28;20123;-59
2021/06/21 12:05:38;;;;;;;2.20;2.00;;;;;;;15.79;84.67;100926.69;10588621;28;20055;-60
2021/06/21 12:10:40;;;;;;;2.45;1.60;;;;;;;15.89;85.01;100929.47;10587272;28;20395;-59
2021/06/21 12:15:43;;;;;;;2.40;1.63;;;;;;;16.39;83.26;100939.63;10586294;28;20046;-61
2021/06/21 12:20:45;;;;;;;1.52;1.42;;;;;;;16.02;82.81;100956.59;10587525;28;20484;-60
2021/06/21 12:25:48;;;;;;;1.67;1.58;;;;;;;15.67;82.94;100962.75;10587348;28;20047;-60
2021/06/21 12:30:54;;;;;;;3.00;2.58;;;;;;;15.84;81.87;100960.66;10588065;28;20055;-61
2021/06/21 12:36:09;;;;;;;2.10;1.95;;;;;;;15.84;84.48;100965.94;10585866;28;20104;-59
2021/06/21 12:41:27;;;;;;;2.47;2.28;;;;;;;15.73;82.30;100972.84;10587220;28;20050;-60
2021/06/21 12:46:35;;;;;;;2.75;2.53;;;;;;;16.05;83.69;100989.84;10586250;28;20055;-60
2021/06/21 12:51:39;;;;;;;3.65;2.25;;;;;;;16.04;84.43;101014.56;10586256;28;20047;-59
2021/06/21 12:56:47;;;;;;;2.60;2.42;;;;;;;15.85;80.68;101015.13;10585674;28;20051;-59
2021/06/21 13:01:49;;;;;;;3.63;2.25;;;;;;;16.36;82.76;101014.72;10586236;28;20048;-60
2021/06/21 13:07:05;;;;;;;2.53;2.33;;;;;;;16.40;82.40;101016.16;10585674;28;20097;-59
2021/06/21 13:12:08;;;;;;;2.63;2.53;;;;;;;16.16;83.52;101025.03;10585751;28;20044;-60
2021/06/21 13:17:22;;;;;;;2.70;2.50;;;;;;;16.25;82.34;101026.09;10585637;28;20150;-59
2021/06/21 13:22:37;;;;;;;2.47;2.28;;;;;;;15.64;83.24;101042.16;10585183;28;20051;-60
2021/06/21 13:27:51;;;;;;;2.60;2.35;;;;;;;17.80;79.29;101026.00;10584824;28;20429;-59
2021/06/21 13:32:54;;;;;;;1.90;1.80;;;;;;;16.86;77.16;101015.19;10584775;28;20058;-60
2021/06/21 13:37:57;;;;;;;4.47;2.42;;;;;;;16.90;79.05;101016.59;10584881;28;20043;-60
2021/06/21 13:43:01;;;;;;;2.15;2.05;;;;;;;16.20;82.03;101015.06;10584241;28;20414;-61
2021/06/21 13:48:11;;;;;;;3.45;2.08;;;;;;;16.82;79.69;101011.03;10583873;28;20372;-59
2021/06/21 13:53:25;;;;;;;3.72;2.85;;;;;;;17.71;78.21;101015.31;10584168;28;20047;-60
2021/06/21 13:58:34;;;;;;;4.15;2.80;;;;;;;17.11;77.46;101028.22;10583831;28;20055;-60
2021/06/21 14:03:37;;;;;;;3.92;3.13;;;;;;;17.54;76.94;101036.09;10582706;28;20483;-60
2021/06/21 14:08:39;;;;;;;2.40;2.10;;;;;;;17.37;74.12;101039.31;10583101;28;20054;-59
2021/06/21 14:13:43;;;;;;;2.83;2.50;;;;;;;16.82;78.43;101050.72;10583114;28;20148;-61
2021/06/21 14:18:47;;;;;;;1.50;1.40;;;;;;;17.11;76.97;101047.56;10582623;28;20051;-60
2021/06/21 14:23:50;;;;;;;2.05;1.60;;;;;;;17.23;77.06;101069.53;10583060;28;20053;-60
2021/06/21 14:28:52;;;;;;;3.80;1.60;;;;;;;17.39;76.61;101066.50;10582344;28;20048;-59
2021/06/21 14:33:56;;;;;;;1.40;1.40;;;;;;;16.90;75.39;101064.19;10581916;28;20491;-59
2021/06/21 14:38:58;;;;;;;1.90;1.42;;;;;;;17.88;73.11;101075.69;10581457;28;20048;-60
2021/06/21 14:44:01;;;;;;;1.80;1.70;;;;;;;17.11;77.49;101089.06;10581982;28;20055;-60
2021/06/21 14:49:06;;;;;;;2.25;1.83;;;;;;;16.55;77.96;101093.38;10581692;28;20051;-60
2021/06/21 14:54:08;;;;;;;3.08;2.30;;;;;;;17.19;78.64;101100.69;10581400;27;20047;-59
2021/06/21 14:59:11;;;;;;;1.52;1.42;;;;;;;17.72;74.70;101101.72;10580310;28;20051;-60
2021/06/21 15:04:13;;;;;;;2.78;1.85;;;;;;;17.04;74.88;101123.91;10581400;28;20047;-59
2021/06/21 15:09:15;;;;;;;1.60;1.50;;;;;;;18.26;74.20;101126.41;10580103;28;20135;-60
2021/06/21 15:14:18;;;;;;;1.88;1.67;;;;;;;16.98;70.14;101135.00;10585955;28;20113;-59
2021/06/21 15:19:20;;;;;;;1.90;1.60;;;;;;;16.82;76.46;101127.41;10595793;28;20051;-59
2021/06/21 15:24:22;;;;;;;1.83;1.73;;;;;;;17.06;76.13;101124.66;10595123;28;20044;-59
2021/06/21 15:29:26;;;;;;;3.55;1.85;;;;;;;16.81;77.05;101127.50;10594668;28;20047;-59
2021/06/21 15:34:28;;;;;;;2.28;2.03;;;;;;;17.32;77.14;101120.88;10595038;27;20048;-60
2021/06/21 15:39:31;;;;;;;3.20;1.45;;;;;;;17.39;75.62;101119.41;10595095;27;20055;-59
2021/06/21 15:44:35;;;;;;;2.92;1.90;;;;;;;16.99;78.67;101133.19;10595460;27;20051;-59
2021/06/21 15:49:37;;;;;;;2.78;2.50;;;;;;;16.54;79.67;101123.41;10595119;27;20054;-60
2021/06/21 15:54:40;;;;;;;4.78;2.30;;;;;;;16.43;79.49;101132.19;10594385;28;20399;-59
2021/06/21 15:59:42;;;;;;;4.10;2.63;;;;;;;16.84;77.60;101140.50;10594048;28;20054;-59
2021/06/21 16:04:45;;;;;;;2.75;2.42;;;;;;;16.96;75.62;101142.19;10593907;27;20050;-59
2021/06/21 16:09:47;;;;;;;4.07;1.75;;;;;;;16.67;72.82;101136.53;10594127;27;20079;-60
2021/06/21 16:14:50;;;;;;;2.38;1.63;;;;;;;16.68;75.84;101147.00;10594024;27;20047;-59
2021/06/21 16:19:54;;;;;;;1.83;1.73;;;;;;;16.29;77.13;101148.25;10593963;27;20091;-59
2021/06/21 16:24:57;;;;;;;1.30;1.20;;;;;;;16.11;74.93;101140.75;10591893;27;20054;-59
2021/06/21 16:29:59;;;;;;;2.45;1.88;;;;;;;16.16;79.58;101145.69;10586822;28;20425;-59
2021/06/21 16:35:01;;;;;;;2.08;1.60;;;;;;;15.64;77.65;101139.00;10586505;28;20084;-58
2021/06/21 16:40:07;;;;;;;3.92;1.85;;;;;;;16.14;78.86;101150.25;10586349;28;20403;-59
2021/06/21 16:45:09;;;;;;;1.75;1.65;;;;;;;15.72;76.83;101144.56;10587184;28;20130;-59
2021/06/21 16:50:12;;;;;;;3.90;2.38;;;;;;;16.22;75.92;101155.78;10586201;28;20043;-59
2021/06/21 16:55:15;;;;;;;3.30;1.98;;;;;;;16.42;78.94;101153.44;10585813;28;20115;-59
2021/06/21 17:00:24;;;;;;;4.15;2.53;;;;;;;16.08;76.76;101156.00;10585613;28;20054;-59
2021/06/21 17:05:28;;;;;;;1.60;1.50;;;;;;;15.94;79.23;101165.78;10585426;28;20440;-59
2021/06/21 17:10:30;;;;;;;2.28;1.70;;;;;;;15.88;77.22;101171.50;10585592;28;20054;-59
2021/06/21 17:15:32;;;;;;;3.58;1.83;;;;;;;15.93;78.60;101179.09;10584989;28;20445;-59
2021/06/21 17:20:35;;;;;;;1.83;1.73;;;;;;;15.90;80.05;101181.97;10583771;28;20047;-59
2021/06/21 17:25:37;;;;;;;1.67;1.38;;;;;;;16.23;76.92;101183.06;10584072;28;20043;-59
2021/06/21 17:30:39;;;;;;;1.60;1.50;;;;;;;15.47;77.10;101196.47;10584925;28;20058;-59
2021/06/21 17:35:42;;;;;;;3.50;1.70;;;;;;;15.54;78.32;101202.97;10582829;28;20051;-59
2021/06/21 17:40:44;;;;;;;4.07;1.85;;;;;;;15.84;78.62;101196.47;10581867;28;20449;-60
2021/06/21 17:45:47;;;;;;;1.17;1.13;;;;;;;15.56;80.37;101187.88;10583838;28;20396;-59
2021/06/21 17:50:49;;;;;;;1.40;1.20;;;;;;;15.41;76.06;101195.09;10583526;28;20047;-58
2021/06/21 17:55:51;;;;;;;1.42;1.33;;;;;;;15.26;80.90;101196.19;10583172;28;20048;-59
2021/06/21 18:00:55;;;;;;;2.58;1.38;;;;;;;15.65;79.46;101207.50;10583213;28;20050;-58
2021/06/21 18:05:58;;;;;;;2.45;2.00;;;;;;;15.36;79.00;101206.94;10582754;28;20054;-58
2021/06/21 18:11:01;;;;;;;2.65;1.67;;;;;;;15.35;79.05;101190.28;10583236;28;20059;-59
2021/06/21 18:16:03;;;;;;;7.05;2.63;;;;;;;15.05;79.49;101211.75;10581991;28;20126;-59
2021/06/21 18:21:06;;;;;;;2.90;2.00;;;;;;;15.26;78.07;101219.09;10581976;28;20074;-59
2021/06/21 18:26:08;;;;;;;4.78;2.67;;;;;;;14.96;79.78;101220.28;10582092;28;20055;-59
2021/06/21 18:31:11;;;;;;;5.97;3.08;;;;;;;14.79;79.71;101227.59;10582779;28;20047;-60
2021/06/21 18:36:13;;;;;;;7.97;3.20;;;;;;;14.85;80.36;101248.22;10581997;28;20047;-59
2021/06/21 18:41:16;;;;;;;4.70;3.38;;;;;;;14.70;80.69;101257.19;10581466;28;20491;-58
2021/06/21 18:46:19;;;;;;;4.80;3.00;;;;;;;14.81;81.15;101280.16;10581703;28;20067;-58
2021/06/21 18:51:21;;;;;;;7.82;3.95;;;;;;;14.58;82.00;101284.34;10581096;28;20051;-58
2021/06/21 18:56:24;;;;;;;5.32;2.95;;;;;;;14.79;78.41;101304.03;10580794;28;20495;-59
2021/06/21 19:01:26;;;;;;;9.63;4.00;;;;;;;14.54;80.50;101296.88;10580762;28;20092;-58
2021/06/21 19:06:31;;;;;;;7.10;4.20;;;;;;;14.59;81.36;101291.31;10580816;28;20073;-59
2021/06/21 19:11:34;;;;;;;10.73;4.78;;;;;;;14.78;80.04;101278.59;10581007;28;20044;-59
2021/06/21 19:16:37;;;;;;;10.55;4.30;;;;;;;14.56;80.81;101263.34;10580697;28;20044;-58
2021/06/21 19:21:39;;;;;;;5.97;3.20;;;;;;;14.43;79.98;101275.66;10581077;28;20060;-57
2021/06/21 19:26:44;;;;;;;6.72;3.90;;;;;;;14.50;80.72;101292.72;10580471;28;20062;-59
2021/06/21 19:31:46;;;;;;;6.45;3.65;;;;;;;14.62;82.12;101304.28;10580831;28;20048;-60
2021/06/21 19:36:50;;;;;;;6.25;3.25;;;;;;;14.60;79.45;101322.81;10580175;28;20044;-59
2021/06/21 19:41:52;;;;;;;7.32;4.50;;;;;;;14.50;80.10;101335.72;10580826;28;20047;-58
2021/06/21 19:46:54;;;;;;;5.78;3.13;;;;;;;14.31;79.84;101341.34;10579738;28;20051;-58
2021/06/21 19:51:57;;;;;;;4.57;2.40;;;;;;;14.33;76.31;101350.97;10580083;28;20062;-59
2021/06/21 19:56:59;;;;;;;7.20;2.47;;;;;;;14.08;77.14;101355.16;10579680;28;20051;-60
2021/06/21 20:02:02;;;;;;;4.93;2.33;;;;;;;14.15;76.46;101347.69;10583626;28;20079;-60
2021/06/21 20:07:05;;;;;;;8.25;2.38;;;;;;;14.31;76.49;101348.41;10588468;28;20056;-60
2021/06/21 20:12:09;;;;;;;9.00;3.20;;;;;;;13.97;80.14;101349.69;10588248;28;20081;-60
2021/06/21 20:17:12;;;;;;;6.18;2.60;;;;;;;14.02;77.29;101360.78;10586892;28;20469;-59
2021/06/21 20:22:14;;;;;;;8.18;3.65;;;;;;;14.08;79.87;101365.69;10586717;28;20507;-59
2021/06/21 20:27:16;;;;;;;6.60;3.58;;;;;;;14.16;80.47;101360.78;10586724;28;20472;-59
2021/06/21 20:32:19;;;;;;;6.18;3.15;;;;;;;14.10;79.86;101353.25;10586648;28;20521;-59
2021/06/21 20:37:32;;;;;;;8.40;3.08;;;;;;;14.13;78.72;101347.78;10586275;28;20415;-58
2021/06/21 20:42:34;;;;;;;6.13;2.83;;;;;;;13.96;75.74;101342.75;10586173;28;20502;-60
2021/06/21 20:47:37;;;;;;;7.97;2.95;;;;;;;13.73;76.81;101347.66;10586016;28;20059;-59
2021/06/21 20:52:39;;;;;;;7.18;2.45;;;;;;;13.95;79.56;101349.78;10586666;28;20044;-59
2021/06/21 20:57:46;;;;;;;10.15;3.72;;;;;;;13.77;78.37;101367.59;10586152;28;20043;-59
2021/06/21 21:02:49;;;;;;;4.38;2.53;;;;;;;14.10;78.31;101369.91;10585567;28;20047;-59
2021/06/21 21:07:52;;;;;;;8.57;3.08;;;;;;;13.92;78.95;101368.44;10584027;28;20048;-59
2021/06/21 21:12:55;;;;;;;6.30;3.53;;;;;;;13.74;77.25;101384.41;10583548;28;20055;-59
2021/06/21 21:17:57;;;;;;;8.80;3.45;;;;;;;14.05;77.08;101395.66;10585758;28;20087;-59
2021/06/21 21:23:00;;;;;;;9.18;3.63;;;;;;;13.67;78.20;101400.69;10584999;28;20039;-59
2021/06/21 21:28:03;;;;;;;7.85;3.35;;;;;;;13.61;78.22;101401.88;10584114;28;20040;-59
2021/06/21 21:33:05;;;;;;;4.25;2.80;;;;;;;13.65;76.61;101413.94;10585034;28;20043;-59
2021/06/21 21:38:07;;;;;;;5.25;3.03;;;;;;;13.85;78.20;101428.50;10583881;28;20055;-59
2021/06/21 21:43:10;;;;;;;8.60;3.88;;;;;;;13.63;78.34;101460.53;10584525;28;20050;-59
2021/06/21 21:48:12;;;;;;;9.43;3.90;;;;;;;13.68;79.74;101468.97;10583545;28;20359;-60
2021/06/21 21:53:15;;;;;;;7.85;3.70;;;;;;;13.58;77.48;101462.56;10584219;28;20044;-58
2021/06/21 21:58:17;;;;;;;5.30;3.10;;;;;;;13.69;79.68;101468.06;10582671;28;20044;-59
2021/06/21 22:03:20;;;;;;;8.40;3.42;;;;;;;13.81;79.45;101470.91;10582853;28;20050;-58
2021/06/21 22:08:22;;;;;;;7.60;3.15;;;;;;;13.75;78.95;101470.34;10582971;28;20052;-58
2021/06/21 22:13:25;;;;;;;5.32;2.70;;;;;;;13.66;79.79;101465.59;10582577;28;20094;-58
2021/06/21 22:18:27;;;;;;;12.95;3.92;;;;;;;13.67;77.61;101466.47;10582586;28;20047;-58
2021/06/21 22:23:29;;;;;;;9.10;3.92;;;;;;;13.56;77.51;101457.41;10581647;28;20051;-58
2021/06/21 22:28:32;;;;;;;7.90;3.75;;;;;;;13.49;76.61;101435.03;10582240;28;20051;-58
2021/06/21 22:33:34;;;;;;;7.78;3.80;;;;;;;13.43;77.08;101438.06;10581743;28;20048;-59
2021/06/21 22:38:36;;;;;;;7.28;3.30;;;;;;;13.55;79.00;101437.31;10581958;28;20361;-59
2021/06/21 22:43:39;;;;;;;13.30;4.82;;;;;;;13.52;78.94;101418.25;10581550;28;20062;-58
2021/06/21 22:48:41;;;;;;;7.28;3.33;;;;;;;13.27;77.85;101417.03;10581622;28;20051;-58
2021/06/21 22:53:44;;;;;;;13.88;3.35;;;;;;;13.34;76.74;101414.91;10581335;28;20052;-58
2021/06/21 22:58:46;;;;;;;8.52;4.47;;;;;;;13.31;79.61;101420.31;10580974;28;20066;-59
2021/06/21 23:03:48;;;;;;;9.13;3.90;;;;;;;13.22;77.05;101420.88;10580983;28;20051;-58
2021/06/21 23:08:51;;;;;;;6.22;3.85;;;;;;;13.10;76.79;101432.94;10580877;28;20059;-59
2021/06/21 23:13:53;;;;;;;11.30;4.68;;;;;;;13.12;80.05;101436.31;10580719;28;20044;-58
2021/06/21 23:18:55;;;;;;;11.95;4.90;;;;;;;13.29;79.43;101422.19;10580524;28;20044;-58